createdAt,value
2023-01-30T00:01:20.244Z,-3.60
2023-01-30T00:03:47.765Z,-3.61
2023-01-30T00:06:15.251Z,-3.65
2023-01-30T00:08:42.317Z,-3.67
2023-01-30T00:11:11.519Z,-3.60
2023-01-30T00:13:39.295Z,-3.61
2023-01-30T00:16:07.028Z,-3.58
2023-01-30T00:18:33.942Z,-3.54
2023-01-30T00:21:02.934Z,-3.58
2023-01-30T00:23:31.495Z,-3.59
2023-01-30T00:25:58.473Z,-3.61
2023-01-30T00:28:25.558Z,-3.62
2023-01-30T00:30:54.461Z,-3.65
2023-01-30T00:33:23.594Z,-3.66
2023-01-30T00:35:52.234Z,-3.70
2023-01-30T00:38:19.951Z,-3.70
2023-01-30T00:40:47.925Z,-3.72
2023-01-30T00:43:36.921Z,-3.67
2023-01-30T00:46:29.378Z,-3.69
2023-01-30T00:48:56.285Z,-3.72
2023-01-30T00:51:23.101Z,-3.77
2023-01-30T00:53:49.939Z,-3.80
2023-01-30T00:56:16.881Z,-3.80
2023-01-30T00:58:43.847Z,-3.82
2023-01-30T01:01:11.147Z,-3.76
2023-01-30T01:03:38.148Z,-3.77
2023-01-30T01:06:05.547Z,-3.79
2023-01-30T01:08:32.446Z,-3.75
2023-01-30T01:10:59.454Z,-3.76
2023-01-30T01:13:26.273Z,-3.79
2023-01-30T01:15:53.138Z,-3.84
2023-01-30T01:18:20.163Z,-3.81
2023-01-30T01:20:47.032Z,-3.77
2023-01-30T01:23:13.880Z,-3.81
2023-01-30T01:25:40.812Z,-3.74
2023-01-30T01:28:07.798Z,-3.79
2023-01-30T01:30:34.612Z,-3.76
2023-01-30T01:33:01.471Z,-3.77
2023-01-30T01:35:28.380Z,-3.79
2023-01-30T01:37:55.950Z,-3.80
2023-01-30T01:40:42.441Z,-3.79
2023-01-30T01:43:21.327Z,-3.76
2023-01-30T01:45:52.070Z,-3.75
2023-01-30T01:48:32.510Z,-3.74
2023-01-30T01:51:37.665Z,-3.74
2023-01-30T01:54:12.351Z,-3.75
2023-01-30T01:56:43.812Z,-3.79
2023-01-30T01:59:34.087Z,-3.81
2023-01-30T02:02:06.241Z,-3.86
2023-01-30T02:04:53.151Z,-3.87
2023-01-30T02:07:22.178Z,-3.88
2023-01-30T02:09:50.636Z,-3.93
2023-01-30T02:12:17.429Z,-3.91
2023-01-30T02:14:44.874Z,-3.90
2023-01-30T02:17:31.689Z,-3.89
2023-01-30T02:20:17.745Z,-3.86
2023-01-30T02:23:32.162Z,-3.83
2023-01-30T02:26:47.291Z,-3.89
2023-01-30T02:29:51.157Z,-3.89
2023-01-30T02:32:47.171Z,-3.87
2023-01-30T02:35:31.434Z,-3.88
2023-01-30T02:38:19.953Z,-3.87
2023-01-30T02:41:07.604Z,-3.83
2023-01-30T02:43:57.522Z,-3.80
2023-01-30T02:46:32.670Z,-3.78
2023-01-30T02:49:13.223Z,-3.79
2023-01-30T02:51:45.087Z,-3.83
2023-01-30T02:54:12.472Z,-3.80
2023-01-30T02:56:52.358Z,-3.84
2023-01-30T02:59:30.228Z,-3.89
2023-01-30T03:02:31.656Z,-3.80
2023-01-30T03:05:07.289Z,-3.77
2023-01-30T03:07:50.687Z,-3.73
2023-01-30T03:10:26.570Z,-3.74
2023-01-30T03:13:16.614Z,-3.76
2023-01-30T03:15:47.582Z,-3.75
2023-01-30T03:18:14.719Z,-3.74
2023-01-30T03:20:41.831Z,-3.75
2023-01-30T03:23:09.349Z,-3.76
2023-01-30T03:25:39.527Z,-3.75
2023-01-30T03:28:08.551Z,-3.75
2023-01-30T03:30:35.481Z,-3.76
2023-01-30T03:33:02.275Z,-3.74
2023-01-30T03:35:30.345Z,-3.75
2023-01-30T03:37:58.771Z,-3.77
2023-01-30T03:40:25.680Z,-3.80
2023-01-30T03:42:52.423Z,-3.84
2023-01-30T03:45:19.682Z,-3.82
2023-01-30T03:47:46.686Z,-3.81
2023-01-30T03:50:13.796Z,-3.78
2023-01-30T03:52:40.579Z,-3.76
2023-01-30T03:55:07.959Z,-3.76
2023-01-30T03:57:34.743Z,-3.75
2023-01-30T04:00:01.620Z,-3.77
2023-01-30T04:02:30.049Z,-3.77
2023-01-30T04:04:56.952Z,-3.77
2023-01-30T04:07:23.854Z,-3.80
2023-01-30T04:09:50.739Z,-3.76
2023-01-30T04:12:17.453Z,-3.86
2023-01-30T04:14:44.303Z,-3.79
2023-01-30T04:17:11.147Z,-3.78
2023-01-30T04:19:38.077Z,-3.81
2023-01-30T04:22:04.981Z,-3.83
2023-01-30T04:24:31.858Z,-3.85
2023-01-30T04:26:58.682Z,-3.79
2023-01-30T04:29:25.577Z,-3.79
2023-01-30T04:31:52.356Z,-3.75
2023-01-30T04:34:19.200Z,-3.76
2023-01-30T04:36:46.152Z,-3.75
2023-01-30T04:39:13.117Z,-3.75
2023-01-30T04:41:39.951Z,-3.77
2023-01-30T04:44:06.898Z,-3.72
2023-01-30T04:46:33.903Z,-3.73
2023-01-30T04:49:00.769Z,-3.75
2023-01-30T04:51:27.586Z,-3.76
2023-01-30T04:53:54.374Z,-3.75
2023-01-30T04:56:21.233Z,-3.78
2023-01-30T04:58:48.138Z,-3.82
2023-01-30T05:01:30.592Z,-3.75
2023-01-30T05:03:57.831Z,-3.75
2023-01-30T05:06:24.621Z,-3.74
2023-01-30T05:08:53.092Z,-3.76
2023-01-30T05:11:21.261Z,-3.76
2023-01-30T05:13:48.977Z,-3.73
2023-01-30T05:16:16.966Z,-3.79
2023-01-30T05:18:44.158Z,-3.77
2023-01-30T05:21:15.075Z,-3.73
2023-01-30T05:23:42.382Z,-3.76
2023-01-30T05:26:09.854Z,-3.77
2023-01-30T05:28:36.715Z,-3.74
2023-01-30T05:31:06.003Z,-3.73
2023-01-30T05:33:33.219Z,-3.76
2023-01-30T05:36:00.305Z,-3.77
2023-01-30T05:38:28.110Z,-3.73
2023-01-30T05:41:01.475Z,-3.71
2023-01-30T05:43:29.198Z,-3.74
2023-01-30T05:45:57.850Z,-3.72
2023-01-30T05:48:25.499Z,-3.76
2023-01-30T05:50:57.134Z,-3.73
2023-01-30T05:53:27.054Z,-3.80
2023-01-30T05:56:05.294Z,-3.77
2023-01-30T05:58:33.006Z,-3.76
2023-01-30T06:01:04.712Z,-3.75
2023-01-30T06:03:32.363Z,-3.73
2023-01-30T06:06:01.171Z,-3.75
2023-01-30T06:08:28.341Z,-3.76
2023-01-30T06:10:55.166Z,-3.72
2023-01-30T06:13:22.093Z,-3.71
2023-01-30T06:15:49.046Z,-3.69
2023-01-30T06:18:16.000Z,-3.75
2023-01-30T06:20:50.363Z,-3.71
2023-01-30T06:23:17.725Z,-3.73
2023-01-30T06:25:46.314Z,-3.69
2023-01-30T06:28:14.513Z,-3.76
2023-01-30T06:30:41.309Z,-3.82
2023-01-30T06:33:08.995Z,-3.75
2023-01-30T06:35:37.952Z,-3.72
2023-01-30T06:38:05.755Z,-3.68
2023-01-30T06:40:32.864Z,-3.68
2023-01-30T06:42:59.932Z,-3.66
2023-01-30T06:45:26.788Z,-3.68
2023-01-30T06:47:55.484Z,-3.68
2023-01-30T06:50:26.013Z,-3.64
2023-01-30T06:52:57.395Z,-3.68
2023-01-30T06:55:26.887Z,-3.66
2023-01-30T06:58:13.183Z,-3.65
2023-01-30T07:00:43.390Z,-3.69
2023-01-30T07:03:15.476Z,-3.61
2023-01-30T07:05:43.858Z,-3.65
2023-01-30T07:08:11.545Z,-3.63
2023-01-30T07:10:38.878Z,-3.57
2023-01-30T07:13:05.749Z,-3.56
2023-01-30T07:15:33.208Z,-3.52
2023-01-30T07:18:00.447Z,-3.53
2023-01-30T07:20:27.322Z,-3.54
2023-01-30T07:22:55.659Z,-3.48
2023-01-30T07:25:24.326Z,-3.49
2023-01-30T07:27:52.533Z,-3.44
2023-01-30T07:30:20.099Z,-3.39
2023-01-30T07:32:51.657Z,-3.34
2023-01-30T07:35:19.313Z,-3.42
2023-01-30T07:37:50.898Z,-3.43
2023-01-30T07:40:19.623Z,-3.41
2023-01-30T07:42:57.734Z,-3.34
2023-01-30T07:45:25.318Z,-3.38
2023-01-30T07:47:52.428Z,-3.38
2023-01-30T07:50:19.722Z,-3.32
2023-01-30T07:52:47.023Z,-3.42
2023-01-30T07:55:14.131Z,-3.37
2023-01-30T07:57:41.173Z,-3.44
2023-01-30T08:00:10.902Z,-3.46
2023-01-30T08:02:38.227Z,-3.45
2023-01-30T08:05:06.325Z,-3.45
2023-01-30T08:07:33.563Z,-3.42
2023-01-30T08:10:00.505Z,-3.37
2023-01-30T08:12:27.726Z,-3.43
2023-01-30T08:14:54.750Z,-3.43
2023-01-30T08:17:21.748Z,-3.41
2023-01-30T08:19:48.521Z,-3.45
2023-01-30T08:22:15.365Z,-3.36
2023-01-30T08:24:42.178Z,-3.36
2023-01-30T08:27:09.182Z,-3.33
2023-01-30T08:29:36.002Z,-3.33
2023-01-30T08:32:02.961Z,-3.31
2023-01-30T08:34:29.854Z,-3.32
2023-01-30T08:36:56.664Z,-3.30
2023-01-30T08:39:23.433Z,-3.29
2023-01-30T08:41:50.471Z,-3.23
2023-01-30T08:44:17.396Z,-3.21
2023-01-30T08:46:44.248Z,-3.18
2023-01-30T08:49:11.411Z,-3.23
2023-01-30T08:51:38.652Z,-3.19
2023-01-30T08:54:07.708Z,-3.22
2023-01-30T08:56:35.054Z,-3.18
2023-01-30T08:59:02.117Z,-3.22
2023-01-30T09:01:29.814Z,-3.22
2023-01-30T09:03:57.318Z,-3.18
2023-01-30T09:06:26.145Z,-3.16
2023-01-30T09:08:53.217Z,-3.09
2023-01-30T09:11:20.212Z,-3.09
2023-01-30T09:13:48.869Z,-3.08
2023-01-30T09:16:16.871Z,-3.07
2023-01-30T09:18:44.845Z,-3.04
2023-01-30T09:21:13.986Z,-3.03
2023-01-30T09:23:41.108Z,-3.03
2023-01-30T09:26:08.408Z,-3.00
2023-01-30T09:28:35.418Z,-2.99
2023-01-30T09:31:03.004Z,-2.99
2023-01-30T09:33:30.393Z,-2.95
2023-01-30T09:35:57.607Z,-2.94
2023-01-30T09:38:24.588Z,-2.89
2023-01-30T09:41:00.956Z,-2.92
2023-01-30T09:44:15.595Z,-2.84
2023-01-30T09:47:06.704Z,-2.79
2023-01-30T09:49:39.210Z,-2.77
2023-01-30T09:52:30.515Z,-2.73
2023-01-30T09:55:19.605Z,-2.67
2023-01-30T09:57:48.759Z,-2.72
2023-01-30T10:00:28.782Z,-2.70
2023-01-30T10:03:10.538Z,-2.66
2023-01-30T10:05:51.533Z,-2.66
2023-01-30T10:08:49.920Z,-2.59
2023-01-30T10:11:28.812Z,-2.66
2023-01-30T10:14:20.266Z,-2.63
2023-01-30T10:17:01.301Z,-2.64
2023-01-30T10:19:56.025Z,-2.61
2023-01-30T10:22:38.437Z,-2.57
2023-01-30T10:25:19.716Z,-2.58
2023-01-30T10:28:16.626Z,-2.52
2023-01-30T10:30:47.843Z,-2.52
2023-01-30T10:33:35.742Z,-2.52
2023-01-30T10:36:14.938Z,-2.52
2023-01-30T10:38:50.773Z,-2.56
2023-01-30T10:41:17.521Z,-2.56
2023-01-30T10:43:53.330Z,-2.48
2023-01-30T10:47:01.196Z,-2.42
2023-01-30T10:49:30.683Z,-2.48
2023-01-30T10:52:11.727Z,-2.45
2023-01-30T10:54:48.851Z,-2.43
2023-01-30T10:57:47.302Z,-2.40
2023-01-30T11:00:30.320Z,-2.45
2023-01-30T11:03:17.396Z,-2.37
2023-01-30T11:05:50.368Z,-2.36
2023-01-30T11:08:27.215Z,-2.36
2023-01-30T11:10:56.526Z,-2.39
2023-01-30T11:13:30.467Z,-2.37
2023-01-30T11:16:05.693Z,-2.30
2023-01-30T11:19:17.799Z,-2.35
2023-01-30T11:21:42.111Z,-2.34
2023-01-30T11:24:17.366Z,-2.33
2023-01-30T11:26:47.834Z,-2.35
2023-01-30T11:29:31.389Z,-2.31
2023-01-30T11:32:03.738Z,-2.37
2023-01-30T11:34:30.971Z,-2.31
2023-01-30T11:37:27.440Z,-2.29
2023-01-30T11:39:54.521Z,-2.32
2023-01-30T11:42:29.661Z,-2.27
2023-01-30T11:45:15.620Z,-2.32
2023-01-30T11:48:03.900Z,-2.27
2023-01-30T11:50:41.558Z,-2.33
2023-01-30T11:53:26.250Z,-2.32
2023-01-30T11:56:05.190Z,-2.37
2023-01-30T11:58:38.614Z,-2.36
2023-01-30T12:01:08.479Z,-2.37
2023-01-30T12:03:45.011Z,-2.30
2023-01-30T12:06:12.138Z,-2.35
2023-01-30T12:08:43.029Z,-2.30
2023-01-30T12:11:45.321Z,-2.23
2023-01-30T12:14:42.495Z,-2.26
2023-01-30T12:17:21.488Z,-2.28
2023-01-30T12:20:21.496Z,-2.24
2023-01-30T12:23:10.364Z,-2.27
2023-01-30T12:25:44.236Z,-2.31
2023-01-30T12:28:25.929Z,-2.29
2023-01-30T12:30:58.240Z,-2.32
2023-01-30T12:33:30.836Z,-2.29
2023-01-30T12:36:10.170Z,-2.26
2023-01-30T12:39:13.913Z,-2.25
2023-01-30T12:41:54.116Z,-2.31
2023-01-30T12:44:49.686Z,-2.25
2023-01-30T12:47:37.420Z,-2.24
2023-01-30T12:50:04.085Z,-2.28
2023-01-30T12:52:52.625Z,-2.26
2023-01-30T12:55:22.279Z,-2.28
2023-01-30T12:58:05.862Z,-2.27
2023-01-30T13:00:51.525Z,-2.21
2023-01-30T13:03:36.839Z,-2.17
2023-01-30T13:06:18.774Z,-2.16
2023-01-30T13:08:54.713Z,-2.23
2023-01-30T13:11:41.291Z,-2.18
2023-01-30T13:14:22.112Z,-2.20
2023-01-30T13:17:30.277Z,-2.15
2023-01-30T13:20:20.922Z,-2.14
2023-01-30T13:23:06.334Z,-2.18
2023-01-30T13:25:42.854Z,-2.22
2023-01-30T13:28:15.847Z,-2.19
2023-01-30T13:30:46.102Z,-2.20
2023-01-30T13:33:35.305Z,-2.11
2023-01-30T13:36:06.228Z,-2.19
2023-01-30T13:38:38.812Z,-2.18
2023-01-30T13:41:06.639Z,-2.17
2023-01-30T13:43:42.257Z,-2.13
2023-01-30T13:46:17.174Z,-2.11
2023-01-30T13:49:02.135Z,-2.13
2023-01-30T13:51:47.311Z,-2.11
2023-01-30T13:54:14.111Z,-2.11
2023-01-30T13:56:54.435Z,-2.09
2023-01-30T13:59:42.532Z,-2.05
2023-01-30T14:02:17.878Z,-2.04
2023-01-30T14:04:47.097Z,-2.01
2023-01-30T14:07:23.108Z,-2.03
2023-01-30T14:09:52.735Z,-2.03
2023-01-30T14:12:24.036Z,-2.04
2023-01-30T14:15:18.937Z,-1.98
2023-01-30T14:17:58.255Z,-1.92
2023-01-30T14:20:27.454Z,-1.94
2023-01-30T14:23:23.074Z,-1.86
2023-01-30T14:25:56.626Z,-1.89
2023-01-30T14:28:29.398Z,-1.88
2023-01-30T14:31:01.611Z,-1.86
2023-01-30T14:33:32.049Z,-1.88
2023-01-30T14:35:58.846Z,-1.85
2023-01-30T14:38:27.821Z,-1.85
2023-01-30T14:41:00.456Z,-1.83
2023-01-30T14:43:36.442Z,-1.81
2023-01-30T14:46:23.411Z,-1.74
2023-01-30T14:49:01.628Z,-1.79
2023-01-30T14:51:40.195Z,-1.77
2023-01-30T14:54:23.471Z,-1.74
2023-01-30T14:57:04.111Z,-1.67
2023-01-30T14:59:46.467Z,-1.75
2023-01-30T15:02:13.318Z,-1.78
2023-01-30T15:04:55.184Z,-1.73
2023-01-30T15:07:36.548Z,-1.69
2023-01-30T15:10:22.314Z,-1.68
2023-01-30T15:13:13.847Z,-1.68
2023-01-30T15:15:46.291Z,-1.67
2023-01-30T15:18:37.156Z,-1.66
2023-01-30T15:21:28.222Z,-1.62
2023-01-30T15:24:12.477Z,-1.61
2023-01-30T15:27:07.315Z,-1.64
2023-01-30T15:29:34.261Z,-1.65
2023-01-30T15:32:14.829Z,-1.65
2023-01-30T15:34:50.731Z,-1.64
2023-01-30T15:37:35.185Z,-1.57
2023-01-30T15:40:20.106Z,-1.60
2023-01-30T15:43:34.599Z,-1.55
2023-01-30T15:46:04.404Z,-1.62
2023-01-30T15:49:18.646Z,-1.60
2023-01-30T15:51:45.616Z,-1.62
2023-01-30T15:54:17.916Z,-1.56
2023-01-30T15:56:48.850Z,-1.63
2023-01-30T15:59:26.539Z,-1.58
2023-01-30T16:02:02.893Z,-1.57
2023-01-30T16:04:30.075Z,-1.65
2023-01-30T16:06:56.966Z,-1.62
2023-01-30T16:09:25.930Z,-1.60
2023-01-30T16:11:52.905Z,-1.62
2023-01-30T16:14:22.148Z,-1.61
2023-01-30T16:17:01.573Z,-1.62
2023-01-30T16:19:37.867Z,-1.56
2023-01-30T16:22:15.748Z,-1.58
2023-01-30T16:24:46.728Z,-1.59
2023-01-30T16:27:34.710Z,-1.64
2023-01-30T16:30:07.927Z,-1.64
2023-01-30T16:32:36.296Z,-1.64
2023-01-30T16:35:27.372Z,-1.57
2023-01-30T16:37:57.153Z,-1.61
2023-01-30T16:40:32.016Z,-1.60
2023-01-30T16:43:01.004Z,-1.60
2023-01-30T16:46:13.957Z,-1.57
2023-01-30T16:48:43.215Z,-1.61
2023-01-30T16:51:23.971Z,-1.55
2023-01-30T16:53:56.798Z,-1.58
2023-01-30T16:56:24.290Z,-1.60
2023-01-30T16:58:56.114Z,-1.59
2023-01-30T17:01:24.725Z,-1.56
2023-01-30T17:04:00.911Z,-1.57
2023-01-30T17:06:37.534Z,-1.58
2023-01-30T17:09:26.510Z,-1.62
2023-01-30T17:11:53.314Z,-1.60
2023-01-30T17:14:30.614Z,-1.54
2023-01-30T17:17:04.384Z,-1.58
2023-01-30T17:19:31.628Z,-1.62
2023-01-30T17:22:01.965Z,-1.58
2023-01-30T17:24:29.097Z,-1.62
2023-01-30T17:27:04.187Z,-1.59
2023-01-30T17:29:42.496Z,-1.63
2023-01-30T17:32:13.759Z,-1.65
2023-01-30T17:34:41.499Z,-1.65
2023-01-30T17:37:16.993Z,-1.64
2023-01-30T17:39:43.819Z,-1.63
2023-01-30T17:42:15.288Z,-1.65
2023-01-30T17:44:42.054Z,-1.62
2023-01-30T17:47:12.335Z,-1.63
2023-01-30T17:49:39.902Z,-1.65
2023-01-30T17:52:07.269Z,-1.68
2023-01-30T17:54:34.404Z,-1.67
2023-01-30T17:57:03.372Z,-1.66
2023-01-30T17:59:31.268Z,-1.68
2023-01-30T18:01:59.543Z,-1.64
2023-01-30T18:04:26.555Z,-1.66
2023-01-30T18:06:56.911Z,-1.60
2023-01-30T18:09:24.689Z,-1.59
2023-01-30T18:11:51.954Z,-1.62
2023-01-30T18:14:19.249Z,-1.61
2023-01-30T18:16:47.050Z,-1.64
2023-01-30T18:19:18.044Z,-1.66
2023-01-30T18:21:45.670Z,-1.70
2023-01-30T18:24:13.734Z,-1.68
2023-01-30T18:26:41.469Z,-1.72
2023-01-30T18:29:12.524Z,-1.71
2023-01-30T18:31:40.783Z,-1.67
2023-01-30T18:34:08.224Z,-1.66
2023-01-30T18:36:35.800Z,-1.69
2023-01-30T18:39:03.979Z,-1.70
2023-01-30T18:41:31.040Z,-1.68
2023-01-30T18:44:03.467Z,-1.66
2023-01-30T18:46:30.828Z,-1.69
2023-01-30T18:48:58.335Z,-1.68
2023-01-30T18:51:31.552Z,-1.62
2023-01-30T18:53:59.601Z,-1.66
2023-01-30T18:56:33.131Z,-1.61
2023-01-30T18:59:03.937Z,-1.65
2023-01-30T19:01:38.224Z,-1.67
2023-01-30T19:04:07.806Z,-1.70
2023-01-30T19:06:36.968Z,-1.76
2023-01-30T19:09:04.379Z,-1.74
2023-01-30T19:11:49.839Z,-1.77
2023-01-30T19:14:16.792Z,-1.77
2023-01-30T19:16:43.806Z,-1.75
2023-01-30T19:19:10.894Z,-1.78
2023-01-30T19:21:38.254Z,-1.83
2023-01-30T19:24:07.153Z,-1.79
2023-01-30T19:26:35.101Z,-1.85
2023-01-30T19:29:02.099Z,-1.91
2023-01-30T19:31:29.447Z,-1.95
2023-01-30T19:34:02.340Z,-1.99
2023-01-30T19:36:31.917Z,-2.07
2023-01-30T19:38:59.942Z,-2.18
2023-01-30T19:41:31.712Z,-2.20
2023-01-30T19:44:00.934Z,-2.24
2023-01-30T19:46:31.195Z,-2.28
2023-01-30T19:48:58.661Z,-2.35
2023-01-30T19:51:30.793Z,-2.34
2023-01-30T19:53:59.510Z,-2.28
2023-01-30T19:56:27.793Z,-2.40
2023-01-30T19:58:57.211Z,-2.47
2023-01-30T20:01:27.592Z,-2.47
2023-01-30T20:03:56.835Z,-2.50
2023-01-30T20:06:26.733Z,-2.47
2023-01-30T20:08:56.138Z,-2.52
2023-01-30T20:11:23.084Z,-2.54
2023-01-30T20:13:51.016Z,-2.60
2023-01-30T20:16:20.777Z,-2.57
2023-01-30T20:18:53.576Z,-2.60
2023-01-30T20:21:22.026Z,-2.62
2023-01-30T20:23:56.656Z,-2.62
2023-01-30T20:26:27.207Z,-2.64
2023-01-30T20:28:55.121Z,-2.66
2023-01-30T20:31:24.496Z,-2.66
2023-01-30T20:33:51.952Z,-2.67
2023-01-30T20:36:20.332Z,-2.67
2023-01-30T20:38:49.232Z,-2.69
2023-01-30T20:41:21.627Z,-2.68
2023-01-30T20:43:51.219Z,-2.67
2023-01-30T20:46:30.316Z,-2.63
2023-01-30T20:49:01.270Z,-2.70
2023-01-30T20:51:30.961Z,-2.71
2023-01-30T20:54:00.742Z,-2.73
2023-01-30T20:56:34.151Z,-2.73
2023-01-30T20:59:02.420Z,-2.72
2023-01-30T21:01:29.567Z,-2.73
2023-01-30T21:03:59.271Z,-2.77
2023-01-30T21:06:37.070Z,-2.72
2023-01-30T21:09:12.440Z,-2.75
2023-01-30T21:11:39.645Z,-2.73
2023-01-30T21:14:06.651Z,-2.71
2023-01-30T21:16:35.653Z,-2.69
2023-01-30T21:19:06.413Z,-2.70
2023-01-30T21:21:37.667Z,-2.69
2023-01-30T21:24:09.357Z,-2.73
2023-01-30T21:26:38.486Z,-2.72
2023-01-30T21:29:06.922Z,-2.72
2023-01-30T21:31:35.993Z,-2.75
2023-01-30T21:34:03.823Z,-2.69
2023-01-30T21:36:30.925Z,-2.71
2023-01-30T21:39:16.131Z,-2.73
2023-01-30T21:42:03.499Z,-2.72
2023-01-30T21:44:39.141Z,-2.71
2023-01-30T21:47:07.007Z,-2.75
2023-01-30T21:49:34.824Z,-2.73
2023-01-30T21:52:01.762Z,-2.74
2023-01-30T21:54:28.620Z,-2.78
2023-01-30T21:56:55.729Z,-2.77
2023-01-30T21:59:22.591Z,-2.75
2023-01-30T22:01:49.436Z,-2.74
2023-01-30T22:04:16.661Z,-2.76
2023-01-30T22:06:44.318Z,-2.77
2023-01-30T22:09:15.672Z,-2.77
2023-01-30T22:11:42.747Z,-2.79
2023-01-30T22:14:13.372Z,-2.76
2023-01-30T22:16:41.272Z,-2.79
2023-01-30T22:19:08.624Z,-2.77
2023-01-30T22:21:38.763Z,-2.80
2023-01-30T22:24:08.437Z,-2.81
2023-01-30T22:26:36.470Z,-2.83
2023-01-30T22:29:04.948Z,-2.83
2023-01-30T22:31:34.729Z,-2.85
2023-01-30T22:34:03.412Z,-2.85
2023-01-30T22:36:33.379Z,-2.83
2023-01-30T22:39:00.581Z,-2.89
2023-01-30T22:41:30.468Z,-2.85
2023-01-30T22:43:59.302Z,-2.84
2023-01-30T22:46:28.460Z,-2.86
2023-01-30T22:48:55.321Z,-2.90
2023-01-30T22:51:28.299Z,-2.83
2023-01-30T22:54:00.452Z,-2.85
2023-01-30T22:56:34.879Z,-2.84
2023-01-30T22:59:01.911Z,-2.89
2023-01-30T23:01:31.177Z,-2.88
2023-01-30T23:04:03.423Z,-2.91
2023-01-30T23:06:31.524Z,-2.93
2023-01-30T23:09:00.343Z,-2.95
2023-01-30T23:11:30.270Z,-2.92
2023-01-30T23:14:04.256Z,-2.89
2023-01-30T23:16:33.776Z,-2.93
2023-01-30T23:19:03.538Z,-2.94
2023-01-30T23:21:31.887Z,-2.97
2023-01-30T23:24:00.990Z,-2.93
2023-01-30T23:26:31.286Z,-2.96
2023-01-30T23:28:58.791Z,-2.94
2023-01-30T23:31:27.382Z,-2.92
2023-01-30T23:33:55.609Z,-2.93
2023-01-30T23:36:23.074Z,-2.95
2023-01-30T23:38:51.386Z,-2.93
2023-01-30T23:41:20.867Z,-2.92
2023-01-30T23:43:48.594Z,-2.98
2023-01-30T23:46:24.120Z,-2.97
2023-01-30T23:48:53.945Z,-2.95
2023-01-30T23:51:23.495Z,-2.99
2023-01-30T23:53:51.347Z,-2.99
2023-01-30T23:56:19.084Z,-3.01
2023-01-30T23:58:46.795Z,-2.97
